AIRPORT ID: 4P3

DATE: 2024-06-16 ZULU TIME: 16.15 LOCAL TIME: 11.15


METAR K4P3 161615Z AUTO 22014G20KT 10SM 25/19 A2969

ALTIMETER: A2969 Q1005

DENSITY ALT: 3300 Ft

WIND DIRECT: 230

WIND SPEED: 14 Gust

WIND CONDITIONS:

VISIBILTY: 10SM 9999M

TEMPERATURE: 77 F 25 C

DEW POINT: 66 F 19 C

HUMID: 68%

LCL: 3,000-5,000 feet

RADIO CHECK: 0

ADVISARIES: 0

GREETINGS: 0

CONVERSATIONS: 0